sensor_id;sensor_type;location;lat;lon;timestamp;temperature;humidity
21489;DHT22;10906;45.194;5.684;2023-06-24T05:11:21;17.60;99.90
21489;DHT22;10906;45.194;5.684;2023-06-24T05:14:05;17.60;99.90
21489;DHT22;10906;45.194;5.684;2023-06-24T05:16:49;17.60;99.90
21489;DHT22;10906;45.194;5.684;2023-06-24T05:19:34;17.50;99.90
21489;DHT22;10906;45.194;5.684;2023-06-24T05:25:03;17.60;99.90
21489;DHT22;10906;45.194;5.684;2023-06-24T05:27:48;17.60;99.90
21489;DHT22;10906;45.194;5.684;2023-06-24T05:30:32;17.60;99.90
21489;DHT22;10906;45.194;5.684;2023-06-24T05:36:01;17.60;99.90
21489;DHT22;10906;45.194;5.684;2023-06-24T05:38:46;17.70;99.90
21489;DHT22;10906;45.194;5.684;2023-06-24T05:44:17;17.80;99.90
21489;DHT22;10906;45.194;5.684;2023-06-24T05:52:31;18.10;99.90
21489;DHT22;10906;45.194;5.684;2023-06-24T05:55:15;18.20;99.90
21489;DHT22;10906;45.194;5.684;2023-06-24T05:57:59;18.20;99.90
21489;DHT22;10906;45.194;5.684;2023-06-24T06:00:44;18.20;99.90
21489;DHT22;10906;45.194;5.684;2023-06-24T06:06:13;18.30;99.90
21489;DHT22;10906;45.194;5.684;2023-06-24T06:14:26;18.50;99.90
21489;DHT22;10906;45.194;5.684;2023-06-24T06:17:13;18.60;99.90
21489;DHT22;10906;45.194;5.684;2023-06-24T06:25:26;18.80;99.90
21489;DHT22;10906;45.194;5.684;2023-06-24T06:28:10;18.90;99.90
21489;DHT22;10906;45.194;5.684;2023-06-24T06:44:40;19.40;99.90
21489;DHT22;10906;45.194;5.684;2023-06-24T06:50:09;19.00;99.90
21489;DHT22;10906;45.194;5.684;2023-06-24T06:52:53;19.50;99.90
21489;DHT22;10906;45.194;5.684;2023-06-24T06:55:38;19.60;99.90
21489;DHT22;10906;45.194;5.684;2023-06-24T07:06:36;19.90;99.90
21489;DHT22;10906;45.194;5.684;2023-06-24T07:12:06;20.10;99.80
21489;DHT22;10906;45.194;5.684;2023-06-24T07:20:21;21.10;98.00
21489;DHT22;10906;45.194;5.684;2023-06-24T07:25:50;20.80;98.70
21489;DHT22;10906;45.194;5.684;2023-06-24T07:28:34;20.80;99.00
21489;DHT22;10906;45.194;5.684;2023-06-24T07:36:48;21.10;98.00
21489;DHT22;10906;45.194;5.684;2023-06-24T07:45:04;21.40;97.70
21489;DHT22;10906;45.194;5.684;2023-06-24T07:50:33;21.80;97.20
21489;DHT22;10906;45.194;5.684;2023-06-24T07:56:03;21.90;96.90
21489;DHT22;10906;45.194;5.684;2023-06-24T08:01:32;22.00;96.80
21489;DHT22;10906;45.194;5.684;2023-06-24T08:07:02;22.10;96.30
21489;DHT22;10906;45.194;5.684;2023-06-24T08:09:47;22.30;96.40
21489;DHT22;10906;45.194;5.684;2023-06-24T08:18:01;22.70;96.20
21489;DHT22;10906;45.194;5.684;2023-06-24T08:20:45;22.80;96.30
21489;DHT22;10906;45.194;5.684;2023-06-24T08:23:30;23.10;96.00
21489;DHT22;10906;45.194;5.684;2023-06-24T08:26:14;23.10;95.70
21489;DHT22;10906;45.194;5.684;2023-06-24T08:28:59;23.00;95.30
21489;DHT22;10906;45.194;5.684;2023-06-24T08:31:44;22.90;95.50
21489;DHT22;10906;45.194;5.684;2023-06-24T08:34:28;23.10;94.80
21489;DHT22;10906;45.194;5.684;2023-06-24T08:37:13;23.10;94.90
21489;DHT22;10906;45.194;5.684;2023-06-24T08:39:57;23.30;94.00
21489;DHT22;10906;45.194;5.684;2023-06-24T08:42:43;23.30;94.90
21489;DHT22;10906;45.194;5.684;2023-06-24T08:48:14;23.80;94.20
21489;DHT22;10906;45.194;5.684;2023-06-24T08:51:00;23.90;94.20
21489;DHT22;10906;45.194;5.684;2023-06-24T08:53:45;24.00;93.40
21489;DHT22;10906;45.194;5.684;2023-06-24T08:56:30;24.00;93.40
21489;DHT22;10906;45.194;5.684;2023-06-24T08:59:14;24.10;93.50
21489;DHT22;10906;45.194;5.684;2023-06-24T09:02:03;24.10;93.50
21489;DHT22;10906;45.194;5.684;2023-06-24T09:04:47;24.30;93.10
21489;DHT22;10906;45.194;5.684;2023-06-24T09:07:34;24.50;93.00
21489;DHT22;10906;45.194;5.684;2023-06-24T09:10:37;24.50;92.40
21489;DHT22;10906;45.194;5.684;2023-06-24T09:13:33;24.40;91.40
21489;DHT22;10906;45.194;5.684;2023-06-24T09:16:19;24.50;92.30
21489;DHT22;10906;45.194;5.684;2023-06-24T09:19:03;24.60;92.30
21489;DHT22;10906;45.194;5.684;2023-06-24T09:21:48;24.70;92.20
21489;DHT22;10906;45.194;5.684;2023-06-24T09:24:33;25.00;91.40
21489;DHT22;10906;45.194;5.684;2023-06-24T09:27:18;25.30;91.30
21489;DHT22;10906;45.194;5.684;2023-06-24T09:30:26;25.20;90.00
21489;DHT22;10906;45.194;5.684;2023-06-24T09:33:11;25.20;88.50
21489;DHT22;10906;45.194;5.684;2023-06-24T09:35:56;25.00;90.60
21489;DHT22;10906;45.194;5.684;2023-06-24T09:38:42;25.00;90.80
21489;DHT22;10906;45.194;5.684;2023-06-24T09:44:12;25.40;89.10
21489;DHT22;10906;45.194;5.684;2023-06-24T09:46:57;25.50;90.00
21489;DHT22;10906;45.194;5.684;2023-06-24T09:49:42;25.50;89.90
21489;DHT22;10906;45.194;5.684;2023-06-24T09:52:31;25.50;90.70
21489;DHT22;10906;45.194;5.684;2023-06-24T09:55:18;25.60;88.30
21489;DHT22;10906;45.194;5.684;2023-06-24T09:58:03;25.50;87.70
21489;DHT22;10906;45.194;5.684;2023-06-24T10:00:50;24.90;87.90
21489;DHT22;10906;45.194;5.684;2023-06-24T10:03:39;25.70;88.30
21489;DHT22;10906;45.194;5.684;2023-06-24T10:06:24;25.90;87.50
21489;DHT22;10906;45.194;5.684;2023-06-24T10:09:10;25.90;86.60
21489;DHT22;10906;45.194;5.684;2023-06-24T10:11:56;26.00;87.20
21489;DHT22;10906;45.194;5.684;2023-06-24T10:14:44;26.10;88.30
21489;DHT22;10906;45.194;5.684;2023-06-24T10:17:30;26.00;85.80
21489;DHT22;10906;45.194;5.684;2023-06-24T10:20:24;26.10;85.40
21489;DHT22;10906;45.194;5.684;2023-06-24T10:23:09;26.30;84.50
21489;DHT22;10906;45.194;5.684;2023-06-24T10:25:53;26.40;86.70
21489;DHT22;10906;45.194;5.684;2023-06-24T10:37:23;26.60;79.80
21489;DHT22;10906;45.194;5.684;2023-06-24T10:40:09;26.60;80.90
21489;DHT22;10906;45.194;5.684;2023-06-24T10:42:54;26.60;81.60
21489;DHT22;10906;45.194;5.684;2023-06-24T10:45:49;26.60;82.80
21489;DHT22;10906;45.194;5.684;2023-06-24T10:48:34;26.70;79.60
21489;DHT22;10906;45.194;5.684;2023-06-24T10:54:03;27.10;79.20
21489;DHT22;10906;45.194;5.684;2023-06-24T10:56:48;27.00;78.20
21489;DHT22;10906;45.194;5.684;2023-06-24T11:02:27;27.50;79.60
21489;DHT22;10906;45.194;5.684;2023-06-24T11:07:56;27.70;78.60
21489;DHT22;10906;45.194;5.684;2023-06-24T11:10:48;27.80;78.90
21489;DHT22;10906;45.194;5.684;2023-06-24T11:13:33;27.90;76.50
21489;DHT22;10906;45.194;5.684;2023-06-24T11:16:21;28.00;77.40
21489;DHT22;10906;45.194;5.684;2023-06-24T11:19:05;28.00;76.80
21489;DHT22;10906;45.194;5.684;2023-06-24T11:21:50;28.10;77.30
21489;DHT22;10906;45.194;5.684;2023-06-24T11:24:35;28.20;76.80
21489;DHT22;10906;45.194;5.684;2023-06-24T11:27:25;28.40;76.10
21489;DHT22;10906;45.194;5.684;2023-06-24T11:30:11;28.40;76.70
21489;DHT22;10906;45.194;5.684;2023-06-24T11:32:56;28.50;76.00
21489;DHT22;10906;45.194;5.684;2023-06-24T11:35:40;28.30;73.90
21489;DHT22;10906;45.194;5.684;2023-06-24T11:38:25;28.30;75.70
21489;DHT22;10906;45.194;5.684;2023-06-24T11:41:15;28.30;74.20
21489;DHT22;10906;45.194;5.684;2023-06-24T11:44:00;28.20;74.80
21489;DHT22;10906;45.194;5.684;2023-06-24T11:46:44;28.40;75.00
21489;DHT22;10906;45.194;5.684;2023-06-24T11:49:29;28.60;74.30
21489;DHT22;10906;45.194;5.684;2023-06-24T11:52:14;28.50;74.70
21489;DHT22;10906;45.194;5.684;2023-06-24T11:54:58;28.80;70.50
21489;DHT22;10906;45.194;5.684;2023-06-24T11:57:47;28.80;72.90
21489;DHT22;10906;45.194;5.684;2023-06-24T12:00:38;28.80;71.70
21489;DHT22;10906;45.194;5.684;2023-06-24T12:03:23;29.00;72.70
21489;DHT22;10906;45.194;5.684;2023-06-24T12:06:08;29.10;73.10
21489;DHT22;10906;45.194;5.684;2023-06-24T12:08:53;29.30;73.10
21489;DHT22;10906;45.194;5.684;2023-06-24T12:11:38;29.50;73.00
21489;DHT22;10906;45.194;5.684;2023-06-24T12:14:25;29.50;71.20
21489;DHT22;10906;45.194;5.684;2023-06-24T12:17:13;29.70;73.80
21489;DHT22;10906;45.194;5.684;2023-06-24T12:19:59;29.60;66.70
21489;DHT22;10906;45.194;5.684;2023-06-24T12:22:46;29.60;69.90
21489;DHT22;10906;45.194;5.684;2023-06-24T12:25:31;29.40;71.10
21489;DHT22;10906;45.194;5.684;2023-06-24T12:28:15;29.70;71.00
21489;DHT22;10906;45.194;5.684;2023-06-24T12:31:00;30.20;71.70
21489;DHT22;10906;45.194;5.684;2023-06-24T12:33:44;30.40;70.80
21489;DHT22;10906;45.194;5.684;2023-06-24T12:36:29;30.50;69.90
21489;DHT22;10906;45.194;5.684;2023-06-24T12:39:13;30.40;69.70
21489;DHT22;10906;45.194;5.684;2023-06-24T12:41:58;30.70;69.60
21489;DHT22;10906;45.194;5.684;2023-06-24T12:44:43;30.60;69.00
21489;DHT22;10906;45.194;5.684;2023-06-24T12:47:27;30.70;69.20
21489;DHT22;10906;45.194;5.684;2023-06-24T12:50:12;30.60;68.20
21489;DHT22;10906;45.194;5.684;2023-06-24T12:52:56;30.70;68.40
21489;DHT22;10906;45.194;5.684;2023-06-24T12:55:41;31.00;68.10
21489;DHT22;10906;45.194;5.684;2023-06-24T12:58:28;31.00;69.60
21489;DHT22;10906;45.194;5.684;2023-06-24T13:01:15;31.20;71.00
21489;DHT22;10906;45.194;5.684;2023-06-24T13:04:00;31.40;67.20
21489;DHT22;10906;45.194;5.684;2023-06-24T13:06:45;31.80;66.20
21489;DHT22;10906;45.194;5.684;2023-06-24T13:09:29;31.60;65.50
21489;DHT22;10906;45.194;5.684;2023-06-24T13:12:14;31.50;66.70
21489;DHT22;10906;45.194;5.684;2023-06-24T13:14:58;31.60;63.80
21489;DHT22;10906;45.194;5.684;2023-06-24T13:17:42;31.60;65.40
21489;DHT22;10906;45.194;5.684;2023-06-24T13:20:27;31.60;65.20
21489;DHT22;10906;45.194;5.684;2023-06-24T13:23:12;31.80;65.30
21489;DHT22;10906;45.194;5.684;2023-06-24T13:25:56;31.80;64.70
21489;DHT22;10906;45.194;5.684;2023-06-24T13:28:41;32.10;60.20
21489;DHT22;10906;45.194;5.684;2023-06-24T13:31:26;32.00;64.30
21489;DHT22;10906;45.194;5.684;2023-06-24T13:34:11;32.20;61.40
21489;DHT22;10906;45.194;5.684;2023-06-24T13:36:54;32.00;61.30
21489;DHT22;10906;45.194;5.684;2023-06-24T13:39:39;31.80;59.80
21489;DHT22;10906;45.194;5.684;2023-06-24T13:42:24;32.10;61.00
21489;DHT22;10906;45.194;5.684;2023-06-24T13:45:10;31.80;59.80
21489;DHT22;10906;45.194;5.684;2023-06-24T13:47:54;32.10;60.50
21489;DHT22;10906;45.194;5.684;2023-06-24T13:50:39;32.20;60.60
21489;DHT22;10906;45.194;5.684;2023-06-24T13:53:24;32.20;58.70
21489;DHT22;10906;45.194;5.684;2023-06-24T13:56:08;32.00;57.70
21489;DHT22;10906;45.194;5.684;2023-06-24T13:58:54;31.90;57.70
21489;DHT22;10906;45.194;5.684;2023-06-24T14:01:38;32.00;56.40
21489;DHT22;10906;45.194;5.684;2023-06-24T14:04:23;32.00;58.60
21489;DHT22;10906;45.194;5.684;2023-06-24T14:07:07;31.90;56.50
21489;DHT22;10906;45.194;5.684;2023-06-24T14:09:52;32.20;54.80
21489;DHT22;10906;45.194;5.684;2023-06-24T14:12:37;32.20;54.20
21489;DHT22;10906;45.194;5.684;2023-06-24T14:15:21;32.20;55.40
21489;DHT22;10906;45.194;5.684;2023-06-24T14:18:06;32.50;56.50
21489;DHT22;10906;45.194;5.684;2023-06-24T14:20:51;32.90;51.60
21489;DHT22;10906;45.194;5.684;2023-06-24T14:23:36;32.90;55.00
21489;DHT22;10906;45.194;5.684;2023-06-24T14:26:21;33.20;54.40
21489;DHT22;10906;45.194;5.684;2023-06-24T14:29:05;33.60;55.40
21489;DHT22;10906;45.194;5.684;2023-06-24T14:31:50;33.80;53.80
21489;DHT22;10906;45.194;5.684;2023-06-24T14:34:34;33.70;53.80
21489;DHT22;10906;45.194;5.684;2023-06-24T14:37:18;33.90;53.40
21489;DHT22;10906;45.194;5.684;2023-06-24T14:40:03;33.90;48.50
21489;DHT22;10906;45.194;5.684;2023-06-24T14:42:47;34.00;52.30
21489;DHT22;10906;45.194;5.684;2023-06-24T14:45:32;33.50;47.30
21489;DHT22;10906;45.194;5.684;2023-06-24T14:48:16;33.60;51.90
21489;DHT22;10906;45.194;5.684;2023-06-24T14:53:51;33.90;50.00
21489;DHT22;10906;45.194;5.684;2023-06-24T14:56:35;33.90;50.90
21489;DHT22;10906;45.194;5.684;2023-06-24T14:59:20;34.10;51.10
21489;DHT22;10906;45.194;5.684;2023-06-24T15:02:04;34.30;50.90
21489;DHT22;10906;45.194;5.684;2023-06-24T15:04:49;33.90;47.90
21489;DHT22;10906;45.194;5.684;2023-06-24T15:07:35;33.90;49.30
21489;DHT22;10906;45.194;5.684;2023-06-24T15:10:19;33.60;49.00
21489;DHT22;10906;45.194;5.684;2023-06-24T15:13:04;33.90;51.00
21489;DHT22;10906;45.194;5.684;2023-06-24T15:15:50;34.10;49.50
21489;DHT22;10906;45.194;5.684;2023-06-24T15:18:44;33.80;50.10
21489;DHT22;10906;45.194;5.684;2023-06-24T15:21:29;33.70;49.30
21489;DHT22;10906;45.194;5.684;2023-06-24T15:24:13;33.80;47.90
21489;DHT22;10906;45.194;5.684;2023-06-24T15:26:59;33.70;50.50
21489;DHT22;10906;45.194;5.684;2023-06-24T15:29:43;33.50;47.90
21489;DHT22;10906;45.194;5.684;2023-06-24T15:32:28;33.60;48.20
21489;DHT22;10906;45.194;5.684;2023-06-24T15:35:13;33.60;49.40
21489;DHT22;10906;45.194;5.684;2023-06-24T15:37:57;33.50;46.40
21489;DHT22;10906;45.194;5.684;2023-06-24T15:43:27;33.50;47.10
21489;DHT22;10906;45.194;5.684;2023-06-24T15:46:11;33.40;48.60
21489;DHT22;10906;45.194;5.684;2023-06-24T15:48:56;33.40;48.10
21489;DHT22;10906;45.194;5.684;2023-06-24T15:51:41;33.20;47.90
21489;DHT22;10906;45.194;5.684;2023-06-24T15:54:25;33.00;48.50
21489;DHT22;10906;45.194;5.684;2023-06-24T15:57:10;33.00;47.90
21489;DHT22;10906;45.194;5.684;2023-06-24T15:59:54;33.00;49.30
21489;DHT22;10906;45.194;5.684;2023-06-24T16:02:39;33.00;48.20
21489;DHT22;10906;45.194;5.684;2023-06-24T16:05:23;33.20;49.10
21489;DHT22;10906;45.194;5.684;2023-06-24T16:08:08;33.10;48.10
21489;DHT22;10906;45.194;5.684;2023-06-24T16:10:52;33.20;49.10
21489;DHT22;10906;45.194;5.684;2023-06-24T16:13:37;33.30;48.40
21489;DHT22;10906;45.194;5.684;2023-06-24T16:16:21;33.20;48.00
21489;DHT22;10906;45.194;5.684;2023-06-24T16:19:05;33.00;48.30
21489;DHT22;10906;45.194;5.684;2023-06-24T16:21:50;32.90;48.20
21489;DHT22;10906;45.194;5.684;2023-06-24T16:24:34;33.10;49.00
21489;DHT22;10906;45.194;5.684;2023-06-24T16:27:19;33.30;48.40
21489;DHT22;10906;45.194;5.684;2023-06-24T16:30:04;33.00;50.10
21489;DHT22;10906;45.194;5.684;2023-06-24T16:32:49;33.00;48.90
21489;DHT22;10906;45.194;5.684;2023-06-24T16:35:33;32.40;47.90
21489;DHT22;10906;45.194;5.684;2023-06-24T16:38:18;32.40;49.50
21489;DHT22;10906;45.194;5.684;2023-06-24T16:43:47;31.70;49.30
21489;DHT22;10906;45.194;5.684;2023-06-24T16:46:31;31.50;50.80
21489;DHT22;10906;45.194;5.684;2023-06-24T16:49:16;31.20;50.00
21489;DHT22;10906;45.194;5.684;2023-06-24T16:52:00;31.20;51.20
21489;DHT22;10906;45.194;5.684;2023-06-24T16:54:45;30.80;50.00
21489;DHT22;10906;45.194;5.684;2023-06-24T16:57:29;30.90;51.30
21489;DHT22;10906;45.194;5.684;2023-06-24T17:00:14;30.70;51.80
21489;DHT22;10906;45.194;5.684;2023-06-24T17:03:01;30.60;53.70
21489;DHT22;10906;45.194;5.684;2023-06-24T17:05:45;30.60;53.00
21489;DHT22;10906;45.194;5.684;2023-06-24T17:08:30;30.50;52.50
21489;DHT22;10906;45.194;5.684;2023-06-24T17:11:14;30.40;52.10
21489;DHT22;10906;45.194;5.684;2023-06-24T17:13:59;30.30;52.00
21489;DHT22;10906;45.194;5.684;2023-06-24T17:16:44;30.10;52.40
21489;DHT22;10906;45.194;5.684;2023-06-24T17:19:28;30.10;52.60
21489;DHT22;10906;45.194;5.684;2023-06-24T17:22:13;30.00;52.80
21489;DHT22;10906;45.194;5.684;2023-06-24T17:24:58;29.90;51.10
21489;DHT22;10906;45.194;5.684;2023-06-24T17:27:42;29.90;52.60
21489;DHT22;10906;45.194;5.684;2023-06-24T17:30:27;29.80;53.50
21489;DHT22;10906;45.194;5.684;2023-06-24T17:33:11;29.70;53.30
21489;DHT22;10906;45.194;5.684;2023-06-24T17:35:56;29.60;53.10
21489;DHT22;10906;45.194;5.684;2023-06-24T17:38:40;29.60;53.90
21489;DHT22;10906;45.194;5.684;2023-06-24T17:41:25;29.50;54.30
21489;DHT22;10906;45.194;5.684;2023-06-24T17:44:10;29.50;53.80
21489;DHT22;10906;45.194;5.684;2023-06-24T17:46:54;29.40;54.00
21489;DHT22;10906;45.194;5.684;2023-06-24T17:49:39;29.40;53.80
21489;DHT22;10906;45.194;5.684;2023-06-24T17:52:24;29.40;54.20
21489;DHT22;10906;45.194;5.684;2023-06-24T17:55:08;29.30;54.60
21489;DHT22;10906;45.194;5.684;2023-06-24T17:57:55;29.20;55.90
21489;DHT22;10906;45.194;5.684;2023-06-24T18:00:39;29.10;54.30
21489;DHT22;10906;45.194;5.684;2023-06-24T18:03:24;28.90;54.60
21489;DHT22;10906;45.194;5.684;2023-06-24T18:06:08;28.90;55.20
21489;DHT22;10906;45.194;5.684;2023-06-24T18:08:53;28.80;55.00
21489;DHT22;10906;45.194;5.684;2023-06-24T18:11:38;28.70;54.90
21489;DHT22;10906;45.194;5.684;2023-06-24T18:14:22;28.70;56.00
21489;DHT22;10906;45.194;5.684;2023-06-24T18:17:07;28.60;56.40
21489;DHT22;10906;45.194;5.684;2023-06-24T18:19:52;28.40;55.00
21489;DHT22;10906;45.194;5.684;2023-06-24T18:22:36;28.40;56.10
21489;DHT22;10906;45.194;5.684;2023-06-24T18:25:21;28.40;57.10
21489;DHT22;10906;45.194;5.684;2023-06-24T18:28:05;28.20;56.90
21489;DHT22;10906;45.194;5.684;2023-06-24T18:30:50;28.30;59.20
21489;DHT22;10906;45.194;5.684;2023-06-24T18:33:34;28.20;57.70
21489;DHT22;10906;45.194;5.684;2023-06-24T18:36:20;28.10;58.00
21489;DHT22;10906;45.194;5.684;2023-06-24T18:39:04;28.00;59.40
21489;DHT22;10906;45.194;5.684;2023-06-24T18:41:49;27.90;59.40
21489;DHT22;10906;45.194;5.684;2023-06-24T18:44:33;27.70;60.60
21489;DHT22;10906;45.194;5.684;2023-06-24T18:47:18;27.60;60.90
21489;DHT22;10906;45.194;5.684;2023-06-24T18:50:03;27.50;62.10
21489;DHT22;10906;45.194;5.684;2023-06-24T18:52:47;27.50;61.90
21489;DHT22;10906;45.194;5.684;2023-06-24T18:55:33;27.40;62.50
21489;DHT22;10906;45.194;5.684;2023-06-24T19:01:04;27.20;61.70
21489;DHT22;10906;45.194;5.684;2023-06-24T19:03:49;27.10;62.80
21489;DHT22;10906;45.194;5.684;2023-06-24T19:06:34;27.00;63.30
21489;DHT22;10906;45.194;5.684;2023-06-24T19:09:18;27.00;64.30
21489;DHT22;10906;45.194;5.684;2023-06-24T19:12:03;26.90;64.00
21489;DHT22;10906;45.194;5.684;2023-06-24T19:14:47;26.80;62.30
21489;DHT22;10906;45.194;5.684;2023-06-24T19:17:32;26.80;63.80
21489;DHT22;10906;45.194;5.684;2023-06-24T19:20:17;26.80;63.70
21489;DHT22;10906;45.194;5.684;2023-06-24T19:23:02;26.70;63.40
21489;DHT22;10906;45.194;5.684;2023-06-24T19:25:47;26.40;62.60
21489;DHT22;10906;45.194;5.684;2023-06-24T19:28:31;26.40;65.00
21489;DHT22;10906;45.194;5.684;2023-06-24T19:39:30;26.20;64.00
21489;DHT22;10906;45.194;5.684;2023-06-24T19:42:14;26.20;66.10
21489;DHT22;10906;45.194;5.684;2023-06-24T19:47:43;26.10;65.10
21489;DHT22;10906;45.194;5.684;2023-06-24T19:50:28;26.00;66.60
21489;DHT22;10906;45.194;5.684;2023-06-24T19:58:41;25.70;65.80
21489;DHT22;10906;45.194;5.684;2023-06-24T20:04:10;25.70;66.20
21489;DHT22;10906;45.194;5.684;2023-06-24T20:06:54;25.60;67.30
21489;DHT22;10906;45.194;5.684;2023-06-24T20:09:38;25.50;67.30
21489;DHT22;10906;45.194;5.684;2023-06-24T20:12:23;25.50;67.20
21489;DHT22;10906;45.194;5.684;2023-06-24T20:15:07;25.40;67.60
21489;DHT22;10906;45.194;5.684;2023-06-24T20:17:52;25.40;67.50
21489;DHT22;10906;45.194;5.684;2023-06-24T20:20:36;25.30;67.60
21489;DHT22;10906;45.194;5.684;2023-06-24T20:26:05;25.10;67.40
21489;DHT22;10906;45.194;5.684;2023-06-24T20:28:50;25.10;68.40
21489;DHT22;10906;45.194;5.684;2023-06-24T20:31:34;24.90;68.60
21489;DHT22;10906;45.194;5.684;2023-06-24T20:34:19;25.00;69.30
21489;DHT22;10906;45.194;5.684;2023-06-24T20:37:03;25.00;69.60
21489;DHT22;10906;45.194;5.684;2023-06-24T20:39:48;24.90;69.80
21489;DHT22;10906;45.194;5.684;2023-06-24T20:42:33;24.90;70.00
21489;DHT22;10906;45.194;5.684;2023-06-24T20:45:17;24.80;70.50
21489;DHT22;10906;45.194;5.684;2023-06-24T20:48:02;24.70;71.40
21489;DHT22;10906;45.194;5.684;2023-06-24T20:50:47;24.70;71.50
21489;DHT22;10906;45.194;5.684;2023-06-24T20:59:00;24.50;71.80
21489;DHT22;10906;45.194;5.684;2023-06-24T21:01:45;24.50;72.90
21489;DHT22;10906;45.194;5.684;2023-06-24T21:04:29;24.50;73.00
21489;DHT22;10906;45.194;5.684;2023-06-24T21:09:58;24.40;73.20
21489;DHT22;10906;45.194;5.684;2023-06-24T21:12:42;24.30;73.50
21489;DHT22;10906;45.194;5.684;2023-06-24T21:15:27;24.20;73.60
21489;DHT22;10906;45.194;5.684;2023-06-24T21:18:10;24.10;74.10
21489;DHT22;10906;45.194;5.684;2023-06-24T21:20:55;24.00;74.60
21489;DHT22;10906;45.194;5.684;2023-06-24T21:23:39;24.00;74.70
21489;DHT22;10906;45.194;5.684;2023-06-24T21:31:53;24.00;74.90
21489;DHT22;10906;45.194;5.684;2023-06-24T21:34:38;23.90;76.10
21489;DHT22;10906;45.194;5.684;2023-06-24T21:37:22;23.90;75.90
21489;DHT22;10906;45.194;5.684;2023-06-24T21:40:07;23.80;76.50
21489;DHT22;10906;45.194;5.684;2023-06-24T21:42:51;23.80;76.60
21489;DHT22;10906;45.194;5.684;2023-06-24T21:45:36;23.60;76.60
21489;DHT22;10906;45.194;5.684;2023-06-24T21:48:20;23.40;77.10
21489;DHT22;10906;45.194;5.684;2023-06-24T21:53:49;23.40;77.20
21489;DHT22;10906;45.194;5.684;2023-06-24T21:56:36;23.40;77.90
21489;DHT22;10906;45.194;5.684;2023-06-24T21:59:20;23.50;78.90
